sensor_id;sensor_type;location;lat;lon;timestamp;P1;durP1;ratioP1;P2;durP2;ratioP2
52708;SDS011;38606;52.986;6.980;2023-11-18T00:00:49;33.58;;;21.23;;
52708;SDS011;38606;52.986;6.980;2023-11-18T00:03:15;34.55;;;21.50;;
52708;SDS011;38606;52.986;6.980;2023-11-18T00:05:40;52.53;;;23.55;;
52708;SDS011;38606;52.986;6.980;2023-11-18T00:08:06;72.82;;;25.52;;
52708;SDS011;38606;52.986;6.980;2023-11-18T00:10:32;159.88;;;26.50;;
52708;SDS011;38606;52.986;6.980;2023-11-18T00:12:58;107.85;;;25.67;;
52708;SDS011;38606;52.986;6.980;2023-11-18T00:15:23;96.72;;;23.55;;
52708;SDS011;38606;52.986;6.980;2023-11-18T00:17:49;96.80;;;24.25;;
52708;SDS011;38606;52.986;6.980;2023-11-18T00:20:15;121.80;;;24.15;;
52708;SDS011;38606;52.986;6.980;2023-11-18T00:22:41;140.13;;;26.70;;
52708;SDS011;38606;52.986;6.980;2023-11-18T00:25:08;79.75;;;24.30;;
52708;SDS011;38606;52.986;6.980;2023-11-18T00:27:34;68.45;;;22.25;;
52708;SDS011;38606;52.986;6.980;2023-11-18T00:30:02;129.02;;;27.10;;
52708;SDS011;38606;52.986;6.980;2023-11-18T00:32:30;125.45;;;26.30;;
52708;SDS011;38606;52.986;6.980;2023-11-18T00:34:57;88.85;;;25.40;;
52708;SDS011;38606;52.986;6.980;2023-11-18T00:37:22;98.43;;;24.15;;
52708;SDS011;38606;52.986;6.980;2023-11-18T00:39:48;108.18;;;26.63;;
52708;SDS011;38606;52.986;6.980;2023-11-18T00:42:14;118.55;;;25.48;;
52708;SDS011;38606;52.986;6.980;2023-11-18T00:44:40;161.13;;;26.67;;
52708;SDS011;38606;52.986;6.980;2023-11-18T00:47:07;250.82;;;28.63;;
52708;SDS011;38606;52.986;6.980;2023-11-18T00:49:33;71.50;;;23.40;;
52708;SDS011;38606;52.986;6.980;2023-11-18T00:51:59;97.30;;;23.20;;
52708;SDS011;38606;52.986;6.980;2023-11-18T00:54:25;213.65;;;27.52;;
52708;SDS011;38606;52.986;6.980;2023-11-18T00:56:51;157.35;;;24.80;;
52708;SDS011;38606;52.986;6.980;2023-11-18T00:59:17;67.10;;;22.40;;
52708;SDS011;38606;52.986;6.980;2023-11-18T01:01:43;72.60;;;20.52;;
52708;SDS011;38606;52.986;6.980;2023-11-18T01:04:09;104.68;;;23.15;;
52708;SDS011;38606;52.986;6.980;2023-11-18T01:06:34;55.80;;;20.65;;
52708;SDS011;38606;52.986;6.980;2023-11-18T01:09:00;47.10;;;20.52;;
52708;SDS011;38606;52.986;6.980;2023-11-18T01:11:26;51.08;;;21.75;;
52708;SDS011;38606;52.986;6.980;2023-11-18T01:13:52;46.10;;;19.42;;
52708;SDS011;38606;52.986;6.980;2023-11-18T01:16:21;69.15;;;22.60;;
52708;SDS011;38606;52.986;6.980;2023-11-18T01:18:46;48.40;;;22.25;;
52708;SDS011;38606;52.986;6.980;2023-11-18T01:21:12;44.35;;;21.33;;
52708;SDS011;38606;52.986;6.980;2023-11-18T01:23:38;48.97;;;23.02;;
52708;SDS011;38606;52.986;6.980;2023-11-18T01:26:10;41.92;;;20.73;;
52708;SDS011;38606;52.986;6.980;2023-11-18T01:28:37;49.15;;;22.45;;
52708;SDS011;38606;52.986;6.980;2023-11-18T01:31:06;52.60;;;23.48;;
52708;SDS011;38606;52.986;6.980;2023-11-18T01:33:36;54.05;;;23.35;;
52708;SDS011;38606;52.986;6.980;2023-11-18T01:36:03;48.67;;;23.35;;
52708;SDS011;38606;52.986;6.980;2023-11-18T01:38:29;52.85;;;23.33;;
52708;SDS011;38606;52.986;6.980;2023-11-18T01:40:56;51.83;;;23.02;;
52708;SDS011;38606;52.986;6.980;2023-11-18T01:43:21;44.30;;;22.25;;
52708;SDS011;38606;52.986;6.980;2023-11-18T01:45:47;60.47;;;23.67;;
52708;SDS011;38606;52.986;6.980;2023-11-18T01:48:13;65.10;;;22.65;;
52708;SDS011;38606;52.986;6.980;2023-11-18T01:50:41;93.47;;;24.70;;
52708;SDS011;38606;52.986;6.980;2023-11-18T01:53:08;150.65;;;24.25;;
52708;SDS011;38606;52.986;6.980;2023-11-18T01:55:35;133.05;;;22.88;;
52708;SDS011;38606;52.986;6.980;2023-11-18T01:58:02;149.57;;;23.20;;
52708;SDS011;38606;52.986;6.980;2023-11-18T02:00:38;89.32;;;23.20;;
52708;SDS011;38606;52.986;6.980;2023-11-18T02:03:11;62.67;;;21.77;;
52708;SDS011;38606;52.986;6.980;2023-11-18T02:05:37;86.93;;;22.27;;
52708;SDS011;38606;52.986;6.980;2023-11-18T02:08:04;136.05;;;25.50;;
52708;SDS011;38606;52.986;6.980;2023-11-18T02:10:33;89.88;;;23.67;;
52708;SDS011;38606;52.986;6.980;2023-11-18T02:16:01;83.40;;;23.45;;
52708;SDS011;38606;52.986;6.980;2023-11-18T02:18:32;175.10;;;26.55;;
52708;SDS011;38606;52.986;6.980;2023-11-18T02:20:59;189.48;;;26.70;;
52708;SDS011;38606;52.986;6.980;2023-11-18T02:23:28;127.38;;;24.25;;
52708;SDS011;38606;52.986;6.980;2023-11-18T02:25:54;149.15;;;25.80;;
52708;SDS011;38606;52.986;6.980;2023-11-18T02:28:23;66.30;;;23.88;;
52708;SDS011;38606;52.986;6.980;2023-11-18T02:30:50;151.10;;;27.33;;
52708;SDS011;38606;52.986;6.980;2023-11-18T02:33:27;87.28;;;23.63;;
52708;SDS011;38606;52.986;6.980;2023-11-18T02:36:34;140.00;;;26.40;;
52708;SDS011;38606;52.986;6.980;2023-11-18T02:38:51;147.90;;;26.50;;
52708;SDS011;38606;52.986;6.980;2023-11-18T02:41:20;142.95;;;25.27;;
52708;SDS011;38606;52.986;6.980;2023-11-18T02:43:47;124.18;;;24.45;;
52708;SDS011;38606;52.986;6.980;2023-11-18T02:46:14;75.50;;;23.85;;
52708;SDS011;38606;52.986;6.980;2023-11-18T02:48:41;75.03;;;24.48;;
52708;SDS011;38606;52.986;6.980;2023-11-18T02:51:08;54.60;;;24.00;;
52708;SDS011;38606;52.986;6.980;2023-11-18T02:53:37;54.67;;;24.00;;
52708;SDS011;38606;52.986;6.980;2023-11-18T02:56:02;55.20;;;25.77;;
52708;SDS011;38606;52.986;6.980;2023-11-18T02:58:29;57.90;;;25.35;;
52708;SDS011;38606;52.986;6.980;2023-11-18T03:00:55;51.50;;;26.38;;
52708;SDS011;38606;52.986;6.980;2023-11-18T03:03:24;54.72;;;26.33;;
52708;SDS011;38606;52.986;6.980;2023-11-18T03:05:50;73.22;;;27.92;;
52708;SDS011;38606;52.986;6.980;2023-11-18T03:08:16;59.92;;;26.60;;
52708;SDS011;38606;52.986;6.980;2023-11-18T03:10:42;70.57;;;28.90;;
52708;SDS011;38606;52.986;6.980;2023-11-18T03:13:09;151.35;;;33.15;;
52708;SDS011;38606;52.986;6.980;2023-11-18T03:15:35;97.30;;;30.40;;
52708;SDS011;38606;52.986;6.980;2023-11-18T03:18:01;105.57;;;32.75;;
52708;SDS011;38606;52.986;6.980;2023-11-18T03:20:26;121.47;;;31.00;;
52708;SDS011;38606;52.986;6.980;2023-11-18T03:22:54;101.20;;;31.17;;
52708;SDS011;38606;52.986;6.980;2023-11-18T03:25:20;200.32;;;35.85;;
52708;SDS011;38606;52.986;6.980;2023-11-18T03:27:47;173.60;;;34.00;;
52708;SDS011;38606;52.986;6.980;2023-11-18T03:30:13;367.00;;;36.08;;
52708;SDS011;38606;52.986;6.980;2023-11-18T03:32:39;277.33;;;35.33;;
52708;SDS011;38606;52.986;6.980;2023-11-18T03:35:05;378.20;;;37.15;;
52708;SDS011;38606;52.986;6.980;2023-11-18T03:37:35;321.42;;;34.20;;
52708;SDS011;38606;52.986;6.980;2023-11-18T03:40:04;478.05;;;39.92;;
52708;SDS011;38606;52.986;6.980;2023-11-18T03:42:31;433.50;;;38.10;;
52708;SDS011;38606;52.986;6.980;2023-11-18T03:44:57;339.98;;;35.25;;
52708;SDS011;38606;52.986;6.980;2023-11-18T03:47:22;676.13;;;47.72;;
52708;SDS011;38606;52.986;6.980;2023-11-18T03:49:49;296.60;;;36.88;;
52708;SDS011;38606;52.986;6.980;2023-11-18T03:52:15;492.50;;;43.67;;
52708;SDS011;38606;52.986;6.980;2023-11-18T03:54:41;497.80;;;44.15;;
52708;SDS011;38606;52.986;6.980;2023-11-18T03:57:07;698.25;;;52.20;;
52708;SDS011;38606;52.986;6.980;2023-11-18T03:59:33;583.88;;;46.67;;
52708;SDS011;38606;52.986;6.980;2023-11-18T04:01:58;388.30;;;40.80;;
52708;SDS011;38606;52.986;6.980;2023-11-18T04:04:24;509.65;;;47.35;;
52708;SDS011;38606;52.986;6.980;2023-11-18T04:06:50;375.83;;;40.92;;
52708;SDS011;38606;52.986;6.980;2023-11-18T04:09:15;445.13;;;44.13;;
52708;SDS011;38606;52.986;6.980;2023-11-18T04:11:41;496.65;;;45.03;;
52708;SDS011;38606;52.986;6.980;2023-11-18T04:14:10;429.77;;;41.95;;
52708;SDS011;38606;52.986;6.980;2023-11-18T04:16:37;313.92;;;40.42;;
52708;SDS011;38606;52.986;6.980;2023-11-18T04:19:05;322.75;;;38.25;;
52708;SDS011;38606;52.986;6.980;2023-11-18T04:21:31;374.50;;;39.55;;
52708;SDS011;38606;52.986;6.980;2023-11-18T04:23:57;362.15;;;39.35;;
52708;SDS011;38606;52.986;6.980;2023-11-18T04:26:22;417.02;;;41.33;;
52708;SDS011;38606;52.986;6.980;2023-11-18T04:28:49;328.05;;;38.85;;
52708;SDS011;38606;52.986;6.980;2023-11-18T04:31:15;435.73;;;42.55;;
52708;SDS011;38606;52.986;6.980;2023-11-18T04:33:41;352.73;;;38.67;;
52708;SDS011;38606;52.986;6.980;2023-11-18T04:36:07;177.05;;;32.55;;
52708;SDS011;38606;52.986;6.980;2023-11-18T04:38:35;239.32;;;35.95;;
52708;SDS011;38606;52.986;6.980;2023-11-18T04:41:01;244.85;;;35.92;;
52708;SDS011;38606;52.986;6.980;2023-11-18T04:43:31;335.65;;;38.40;;
52708;SDS011;38606;52.986;6.980;2023-11-18T04:45:58;401.95;;;40.67;;
52708;SDS011;38606;52.986;6.980;2023-11-18T04:48:24;321.27;;;38.38;;
52708;SDS011;38606;52.986;6.980;2023-11-18T04:50:50;420.80;;;40.67;;
52708;SDS011;38606;52.986;6.980;2023-11-18T04:53:16;188.50;;;31.30;;
52708;SDS011;38606;52.986;6.980;2023-11-18T04:55:41;324.38;;;38.03;;
52708;SDS011;38606;52.986;6.980;2023-11-18T04:58:07;349.42;;;36.72;;
52708;SDS011;38606;52.986;6.980;2023-11-18T05:00:37;364.20;;;38.58;;
52708;SDS011;38606;52.986;6.980;2023-11-18T05:03:07;276.55;;;35.47;;
52708;SDS011;38606;52.986;6.980;2023-11-18T05:05:38;332.70;;;38.53;;
52708;SDS011;38606;52.986;6.980;2023-11-18T05:08:07;205.13;;;34.38;;
52708;SDS011;38606;52.986;6.980;2023-11-18T05:10:33;274.75;;;36.30;;
52708;SDS011;38606;52.986;6.980;2023-11-18T05:13:03;263.90;;;36.70;;
52708;SDS011;38606;52.986;6.980;2023-11-18T05:15:29;189.55;;;34.53;;
52708;SDS011;38606;52.986;6.980;2023-11-18T05:17:56;188.73;;;32.88;;
52708;SDS011;38606;52.986;6.980;2023-11-18T05:20:23;289.88;;;38.80;;
52708;SDS011;38606;52.986;6.980;2023-11-18T05:22:48;227.43;;;36.60;;
52708;SDS011;38606;52.986;6.980;2023-11-18T05:25:14;271.98;;;38.67;;
52708;SDS011;38606;52.986;6.980;2023-11-18T05:27:40;174.60;;;35.92;;
52708;SDS011;38606;52.986;6.980;2023-11-18T05:30:09;145.32;;;34.65;;
52708;SDS011;38606;52.986;6.980;2023-11-18T05:32:35;165.15;;;34.10;;
52708;SDS011;38606;52.986;6.980;2023-11-18T05:35:01;181.05;;;37.42;;
52708;SDS011;38606;52.986;6.980;2023-11-18T05:37:30;139.07;;;35.50;;
52708;SDS011;38606;52.986;6.980;2023-11-18T05:40:01;172.98;;;38.33;;
52708;SDS011;38606;52.986;6.980;2023-11-18T05:42:32;153.98;;;36.92;;
52708;SDS011;38606;52.986;6.980;2023-11-18T05:45:05;137.70;;;36.38;;
52708;SDS011;38606;52.986;6.980;2023-11-18T05:47:32;164.30;;;39.05;;
52708;SDS011;38606;52.986;6.980;2023-11-18T05:50:00;140.00;;;39.53;;
52708;SDS011;38606;52.986;6.980;2023-11-18T05:52:25;160.32;;;40.58;;
52708;SDS011;38606;52.986;6.980;2023-11-18T05:54:52;126.35;;;36.53;;
52708;SDS011;38606;52.986;6.980;2023-11-18T05:57:18;130.10;;;38.22;;
52708;SDS011;38606;52.986;6.980;2023-11-18T05:59:44;132.95;;;38.72;;
52708;SDS011;38606;52.986;6.980;2023-11-18T06:02:13;140.50;;;36.55;;
52708;SDS011;38606;52.986;6.980;2023-11-18T06:04:44;126.57;;;37.20;;
52708;SDS011;38606;52.986;6.980;2023-11-18T06:07:10;121.13;;;36.25;;
52708;SDS011;38606;52.986;6.980;2023-11-18T06:09:38;147.55;;;39.92;;
52708;SDS011;38606;52.986;6.980;2023-11-18T06:12:09;129.77;;;38.40;;
52708;SDS011;38606;52.986;6.980;2023-11-18T06:14:36;133.25;;;38.85;;
52708;SDS011;38606;52.986;6.980;2023-11-18T06:17:02;118.22;;;35.67;;
52708;SDS011;38606;52.986;6.980;2023-11-18T06:19:28;109.43;;;35.67;;
52708;SDS011;38606;52.986;6.980;2023-11-18T06:21:54;108.40;;;35.55;;
52708;SDS011;38606;52.986;6.980;2023-11-18T06:24:20;101.55;;;34.53;;
52708;SDS011;38606;52.986;6.980;2023-11-18T06:26:46;99.88;;;34.22;;
52708;SDS011;38606;52.986;6.980;2023-11-18T06:29:14;107.55;;;33.25;;
52708;SDS011;38606;52.986;6.980;2023-11-18T06:31:41;117.30;;;35.03;;
52708;SDS011;38606;52.986;6.980;2023-11-18T06:34:08;101.97;;;34.17;;
52708;SDS011;38606;52.986;6.980;2023-11-18T06:36:33;113.72;;;34.67;;
52708;SDS011;38606;52.986;6.980;2023-11-18T06:39:00;107.63;;;35.72;;
52708;SDS011;38606;52.986;6.980;2023-11-18T06:41:26;116.40;;;34.63;;
52708;SDS011;38606;52.986;6.980;2023-11-18T06:43:58;116.18;;;34.85;;
52708;SDS011;38606;52.986;6.980;2023-11-18T06:46:31;117.65;;;35.72;;
52708;SDS011;38606;52.986;6.980;2023-11-18T06:48:59;119.00;;;35.03;;
52708;SDS011;38606;52.986;6.980;2023-11-18T06:51:30;118.28;;;34.30;;
52708;SDS011;38606;52.986;6.980;2023-11-18T06:54:00;124.88;;;35.60;;
52708;SDS011;38606;52.986;6.980;2023-11-18T06:56:28;110.05;;;35.70;;
52708;SDS011;38606;52.986;6.980;2023-11-18T06:58:54;120.70;;;35.13;;
52708;SDS011;38606;52.986;6.980;2023-11-18T07:01:19;125.85;;;36.10;;
52708;SDS011;38606;52.986;6.980;2023-11-18T07:03:46;141.25;;;36.72;;
52708;SDS011;38606;52.986;6.980;2023-11-18T07:06:19;145.88;;;38.05;;
52708;SDS011;38606;52.986;6.980;2023-11-18T07:08:49;140.88;;;37.47;;
52708;SDS011;38606;52.986;6.980;2023-11-18T07:11:15;138.05;;;36.90;;
52708;SDS011;38606;52.986;6.980;2023-11-18T07:13:42;133.23;;;36.05;;
52708;SDS011;38606;52.986;6.980;2023-11-18T07:16:08;149.68;;;38.03;;
52708;SDS011;38606;52.986;6.980;2023-11-18T07:18:43;188.10;;;39.80;;
52708;SDS011;38606;52.986;6.980;2023-11-18T07:21:09;171.00;;;40.03;;
52708;SDS011;38606;52.986;6.980;2023-11-18T07:23:34;169.32;;;40.80;;
52708;SDS011;38606;52.986;6.980;2023-11-18T07:26:01;179.30;;;39.50;;
52708;SDS011;38606;52.986;6.980;2023-11-18T07:28:29;205.65;;;40.92;;
52708;SDS011;38606;52.986;6.980;2023-11-18T07:30:54;199.07;;;40.90;;
52708;SDS011;38606;52.986;6.980;2023-11-18T07:33:20;223.75;;;43.95;;
52708;SDS011;38606;52.986;6.980;2023-11-18T07:35:49;192.13;;;39.47;;
52708;SDS011;38606;52.986;6.980;2023-11-18T07:38:15;256.63;;;44.97;;
52708;SDS011;38606;52.986;6.980;2023-11-18T07:40:42;197.93;;;41.42;;
52708;SDS011;38606;52.986;6.980;2023-11-18T07:43:17;209.30;;;41.92;;
52708;SDS011;38606;52.986;6.980;2023-11-18T07:45:46;162.82;;;39.70;;
52708;SDS011;38606;52.986;6.980;2023-11-18T07:48:16;168.48;;;40.50;;
52708;SDS011;38606;52.986;6.980;2023-11-18T07:50:42;144.00;;;39.63;;
52708;SDS011;38606;52.986;6.980;2023-11-18T07:53:12;129.60;;;38.55;;
52708;SDS011;38606;52.986;6.980;2023-11-18T07:55:38;127.95;;;39.35;;
52708;SDS011;38606;52.986;6.980;2023-11-18T07:58:07;119.53;;;38.13;;
52708;SDS011;38606;52.986;6.980;2023-11-18T08:00:42;135.40;;;38.58;;
52708;SDS011;38606;52.986;6.980;2023-11-18T08:03:11;120.93;;;38.15;;
52708;SDS011;38606;52.986;6.980;2023-11-18T08:05:37;122.75;;;38.10;;
52708;SDS011;38606;52.986;6.980;2023-11-18T08:08:09;106.57;;;37.10;;
52708;SDS011;38606;52.986;6.980;2023-11-18T08:10:38;116.70;;;39.42;;
52708;SDS011;38606;52.986;6.980;2023-11-18T08:13:06;103.78;;;37.33;;
52708;SDS011;38606;52.986;6.980;2023-11-18T08:15:42;109.72;;;37.22;;
52708;SDS011;38606;52.986;6.980;2023-11-18T08:18:12;115.88;;;36.60;;
52708;SDS011;38606;52.986;6.980;2023-11-18T08:20:38;121.22;;;38.35;;
52708;SDS011;38606;52.986;6.980;2023-11-18T08:23:03;136.75;;;37.53;;
52708;SDS011;38606;52.986;6.980;2023-11-18T08:25:30;126.70;;;39.45;;
52708;SDS011;38606;52.986;6.980;2023-11-18T08:27:59;149.05;;;42.13;;
52708;SDS011;38606;52.986;6.980;2023-11-18T08:30:26;132.65;;;40.63;;
52708;SDS011;38606;52.986;6.980;2023-11-18T08:32:52;139.63;;;40.67;;
52708;SDS011;38606;52.986;6.980;2023-11-18T08:35:17;129.15;;;40.90;;
52708;SDS011;38606;52.986;6.980;2023-11-18T08:37:43;126.20;;;39.55;;
52708;SDS011;38606;52.986;6.980;2023-11-18T08:40:11;129.35;;;40.80;;
52708;SDS011;38606;52.986;6.980;2023-11-18T08:42:41;116.00;;;40.13;;
52708;SDS011;38606;52.986;6.980;2023-11-18T08:45:13;105.83;;;38.60;;
52708;SDS011;38606;52.986;6.980;2023-11-18T08:47:44;127.22;;;41.88;;
52708;SDS011;38606;52.986;6.980;2023-11-18T08:50:14;116.47;;;40.27;;
52708;SDS011;38606;52.986;6.980;2023-11-18T08:52:43;95.13;;;38.08;;
52708;SDS011;38606;52.986;6.980;2023-11-18T08:55:12;100.07;;;38.83;;
52708;SDS011;38606;52.986;6.980;2023-11-18T08:57:45;91.57;;;37.35;;
52708;SDS011;38606;52.986;6.980;2023-11-18T09:00:37;101.05;;;36.67;;
52708;SDS011;38606;52.986;6.980;2023-11-18T09:03:26;99.05;;;37.83;;
52708;SDS011;38606;52.986;6.980;2023-11-18T09:06:05;100.53;;;39.63;;
52708;SDS011;38606;52.986;6.980;2023-11-18T09:08:42;101.22;;;36.85;;
52708;SDS011;38606;52.986;6.980;2023-11-18T09:11:10;96.70;;;39.35;;
52708;SDS011;38606;52.986;6.980;2023-11-18T09:13:41;101.15;;;39.60;;
52708;SDS011;38606;52.986;6.980;2023-11-18T09:16:10;103.35;;;39.25;;
52708;SDS011;38606;52.986;6.980;2023-11-18T09:18:40;98.20;;;38.45;;
52708;SDS011;38606;52.986;6.980;2023-11-18T09:23:45;98.50;;;38.45;;
52708;SDS011;38606;52.986;6.980;2023-11-18T09:26:13;105.68;;;40.22;;
52708;SDS011;38606;52.986;6.980;2023-11-18T09:28:39;110.20;;;40.20;;
52708;SDS011;38606;52.986;6.980;2023-11-18T09:31:06;112.97;;;40.30;;
52708;SDS011;38606;52.986;6.980;2023-11-18T09:33:36;104.60;;;41.22;;
52708;SDS011;38606;52.986;6.980;2023-11-18T09:36:08;108.63;;;39.97;;
52708;SDS011;38606;52.986;6.980;2023-11-18T09:38:40;117.78;;;43.30;;
52708;SDS011;38606;52.986;6.980;2023-11-18T09:41:07;113.68;;;42.45;;
52708;SDS011;38606;52.986;6.980;2023-11-18T09:43:42;102.47;;;40.03;;
52708;SDS011;38606;52.986;6.980;2023-11-18T09:46:12;109.32;;;41.55;;
52708;SDS011;38606;52.986;6.980;2023-11-18T09:48:47;105.65;;;41.13;;
52708;SDS011;38606;52.986;6.980;2023-11-18T09:51:27;110.97;;;40.80;;
52708;SDS011;38606;52.986;6.980;2023-11-18T09:54:01;109.47;;;42.25;;
52708;SDS011;38606;52.986;6.980;2023-11-18T09:59:43;104.03;;;40.40;;
52708;SDS011;38606;52.986;6.980;2023-11-18T10:02:51;102.38;;;40.78;;
52708;SDS011;38606;52.986;6.980;2023-11-18T10:05:21;103.05;;;38.72;;
52708;SDS011;38606;52.986;6.980;2023-11-18T10:07:51;102.63;;;39.17;;
52708;SDS011;38606;52.986;6.980;2023-11-18T10:10:18;96.10;;;38.85;;
52708;SDS011;38606;52.986;6.980;2023-11-18T10:12:49;103.22;;;39.83;;
52708;SDS011;38606;52.986;6.980;2023-11-18T10:15:23;100.90;;;41.70;;
52708;SDS011;38606;52.986;6.980;2023-11-18T10:17:51;92.00;;;39.00;;
52708;SDS011;38606;52.986;6.980;2023-11-18T10:20:22;87.53;;;36.88;;
52708;SDS011;38606;52.986;6.980;2023-11-18T10:23:10;98.63;;;39.40;;
52708;SDS011;38606;52.986;6.980;2023-11-18T10:25:46;87.93;;;37.22;;
52708;SDS011;38606;52.986;6.980;2023-11-18T10:30:58;74.20;;;34.85;;
52708;SDS011;38606;52.986;6.980;2023-11-18T10:35:58;70.82;;;33.75;;
52708;SDS011;38606;52.986;6.980;2023-11-18T10:38:28;69.05;;;34.20;;
52708;SDS011;38606;52.986;6.980;2023-11-18T10:41:04;70.30;;;33.47;;
52708;SDS011;38606;52.986;6.980;2023-11-18T10:43:30;69.90;;;32.97;;
52708;SDS011;38606;52.986;6.980;2023-11-18T10:46:08;68.47;;;32.80;;
52708;SDS011;38606;52.986;6.980;2023-11-18T10:48:41;71.68;;;33.33;;
52708;SDS011;38606;52.986;6.980;2023-11-18T10:51:09;64.28;;;31.50;;
52708;SDS011;38606;52.986;6.980;2023-11-18T10:53:42;73.03;;;32.88;;
52708;SDS011;38606;52.986;6.980;2023-11-18T10:56:25;62.83;;;30.60;;
52708;SDS011;38606;52.986;6.980;2023-11-18T10:58:56;59.03;;;29.05;;
52708;SDS011;38606;52.986;6.980;2023-11-18T11:01:31;58.47;;;28.17;;
52708;SDS011;38606;52.986;6.980;2023-11-18T11:04:07;52.78;;;27.65;;
52708;SDS011;38606;52.986;6.980;2023-11-18T11:06:40;52.88;;;27.80;;
52708;SDS011;38606;52.986;6.980;2023-11-18T11:09:08;55.85;;;26.60;;
52708;SDS011;38606;52.986;6.980;2023-11-18T11:11:49;57.92;;;27.42;;
52708;SDS011;38606;52.986;6.980;2023-11-18T11:14:20;57.22;;;26.20;;
52708;SDS011;38606;52.986;6.980;2023-11-18T11:16:52;53.67;;;25.85;;
52708;SDS011;38606;52.986;6.980;2023-11-18T11:19:33;51.72;;;26.05;;
52708;SDS011;38606;52.986;6.980;2023-11-18T11:22:09;51.78;;;25.42;;
52708;SDS011;38606;52.986;6.980;2023-11-18T11:24:46;49.17;;;25.55;;
52708;SDS011;38606;52.986;6.980;2023-11-18T11:27:21;48.97;;;25.17;;
52708;SDS011;38606;52.986;6.980;2023-11-18T11:32:53;50.33;;;24.98;;
52708;SDS011;38606;52.986;6.980;2023-11-18T11:35:30;48.28;;;24.13;;
52708;SDS011;38606;52.986;6.980;2023-11-18T11:38:02;46.40;;;25.05;;
52708;SDS011;38606;52.986;6.980;2023-11-18T11:40:35;49.17;;;24.75;;
52708;SDS011;38606;52.986;6.980;2023-11-18T11:43:03;41.50;;;23.50;;
52708;SDS011;38606;52.986;6.980;2023-11-18T11:45:34;43.13;;;23.95;;
52708;SDS011;38606;52.986;6.980;2023-11-18T11:48:01;49.80;;;23.90;;
52708;SDS011;38606;52.986;6.980;2023-11-18T11:51:05;46.03;;;22.88;;
52708;SDS011;38606;52.986;6.980;2023-11-18T11:54:47;41.60;;;21.70;;
52708;SDS011;38606;52.986;6.980;2023-11-18T11:56:46;41.65;;;23.05;;
52708;SDS011;38606;52.986;6.980;2023-11-18T12:02:18;38.67;;;21.30;;
52708;SDS011;38606;52.986;6.980;2023-11-18T12:04:54;39.78;;;21.13;;
52708;SDS011;38606;52.986;6.980;2023-11-18T12:07:23;43.88;;;21.67;;
52708;SDS011;38606;52.986;6.980;2023-11-18T12:09:56;41.05;;;22.20;;
52708;SDS011;38606;52.986;6.980;2023-11-18T12:12:24;39.38;;;21.15;;
52708;SDS011;38606;52.986;6.980;2023-11-18T12:14:56;37.83;;;20.88;;
52708;SDS011;38606;52.986;6.980;2023-11-18T12:17:25;42.42;;;21.08;;
52708;SDS011;38606;52.986;6.980;2023-11-18T12:19:57;39.13;;;20.48;;
52708;SDS011;38606;52.986;6.980;2023-11-18T12:23:02;34.42;;;19.52;;
52708;SDS011;38606;52.986;6.980;2023-11-18T12:25:39;43.42;;;21.33;;
52708;SDS011;38606;52.986;6.980;2023-11-18T12:28:09;37.45;;;20.25;;
52708;SDS011;38606;52.986;6.980;2023-11-18T12:30:42;44.38;;;22.75;;
52708;SDS011;38606;52.986;6.980;2023-11-18T12:33:17;39.78;;;20.92;;
52708;SDS011;38606;52.986;6.980;2023-11-18T12:40:55;37.38;;;20.48;;
52708;SDS011;38606;52.986;6.980;2023-11-18T12:48:43;43.58;;;20.25;;
52708;SDS011;38606;52.986;6.980;2023-11-18T12:51:10;40.17;;;20.15;;
52708;SDS011;38606;52.986;6.980;2023-11-18T12:53:48;38.83;;;19.73;;
52708;SDS011;38606;52.986;6.980;2023-11-18T12:56:24;42.42;;;19.35;;
52708;SDS011;38606;52.986;6.980;2023-11-18T12:58:51;34.53;;;19.80;;
52708;SDS011;38606;52.986;6.980;2023-11-18T13:01:16;34.22;;;18.95;;
52708;SDS011;38606;52.986;6.980;2023-11-18T13:03:44;37.13;;;19.42;;
52708;SDS011;38606;52.986;6.980;2023-11-18T13:06:11;36.80;;;18.35;;
52708;SDS011;38606;52.986;6.980;2023-11-18T13:08:40;41.65;;;19.60;;
52708;SDS011;38606;52.986;6.980;2023-11-18T13:11:06;33.28;;;18.20;;
52708;SDS011;38606;52.986;6.980;2023-11-18T13:13:37;40.33;;;20.02;;
52708;SDS011;38606;52.986;6.980;2023-11-18T13:16:05;40.47;;;20.17;;
52708;SDS011;38606;52.986;6.980;2023-11-18T13:18:47;40.65;;;20.67;;
52708;SDS011;38606;52.986;6.980;2023-11-18T13:21:17;40.67;;;18.97;;
52708;SDS011;38606;52.986;6.980;2023-11-18T13:23:47;40.80;;;18.55;;
52708;SDS011;38606;52.986;6.980;2023-11-18T13:26:15;40.28;;;19.27;;
52708;SDS011;38606;52.986;6.980;2023-11-18T13:28:41;37.55;;;18.00;;
52708;SDS011;38606;52.986;6.980;2023-11-18T13:31:09;42.45;;;18.50;;
52708;SDS011;38606;52.986;6.980;2023-11-18T13:33:38;39.60;;;19.67;;
52708;SDS011;38606;52.986;6.980;2023-11-18T13:36:05;42.40;;;18.95;;
52708;SDS011;38606;52.986;6.980;2023-11-18T13:38:35;41.58;;;18.52;;
52708;SDS011;38606;52.986;6.980;2023-11-18T13:41:02;40.38;;;18.50;;
52708;SDS011;38606;52.986;6.980;2023-11-18T13:43:44;46.38;;;21.25;;
52708;SDS011;38606;52.986;6.980;2023-11-18T13:46:17;44.03;;;19.80;;
52708;SDS011;38606;52.986;6.980;2023-11-18T13:48:49;45.53;;;18.92;;
52708;SDS011;38606;52.986;6.980;2023-11-18T13:51:16;41.55;;;19.00;;
52708;SDS011;38606;52.986;6.980;2023-11-18T13:53:44;36.63;;;19.08;;
52708;SDS011;38606;52.986;6.980;2023-11-18T13:56:12;41.42;;;19.77;;
52708;SDS011;38606;52.986;6.980;2023-11-18T13:58:38;36.47;;;17.98;;
52708;SDS011;38606;52.986;6.980;2023-11-18T14:01:05;38.72;;;18.42;;
52708;SDS011;38606;52.986;6.980;2023-11-18T14:03:33;37.30;;;17.70;;
52708;SDS011;38606;52.986;6.980;2023-11-18T14:06:02;34.92;;;18.63;;
52708;SDS011;38606;52.986;6.980;2023-11-18T14:08:40;35.85;;;17.77;;
52708;SDS011;38606;52.986;6.980;2023-11-18T14:11:07;36.08;;;17.67;;
52708;SDS011;38606;52.986;6.980;2023-11-18T14:13:34;36.67;;;16.77;;
52708;SDS011;38606;52.986;6.980;2023-11-18T14:16:01;32.30;;;17.75;;
52708;SDS011;38606;52.986;6.980;2023-11-18T14:18:27;37.35;;;17.65;;
52708;SDS011;38606;52.986;6.980;2023-11-18T14:20:53;29.75;;;16.85;;
52708;SDS011;38606;52.986;6.980;2023-11-18T14:23:20;30.10;;;15.82;;
52708;SDS011;38606;52.986;6.980;2023-11-18T14:25:46;35.47;;;15.65;;
52708;SDS011;38606;52.986;6.980;2023-11-18T14:28:12;28.73;;;15.55;;
52708;SDS011;38606;52.986;6.980;2023-11-18T14:30:38;29.80;;;14.93;;
52708;SDS011;38606;52.986;6.980;2023-11-18T14:33:05;25.50;;;14.30;;
52708;SDS011;38606;52.986;6.980;2023-11-18T14:35:32;26.30;;;15.27;;
52708;SDS011;38606;52.986;6.980;2023-11-18T14:37:59;29.55;;;14.93;;
52708;SDS011;38606;52.986;6.980;2023-11-18T14:40:26;29.42;;;15.27;;
52708;SDS011;38606;52.986;6.980;2023-11-18T14:42:53;32.22;;;15.55;;
52708;SDS011;38606;52.986;6.980;2023-11-18T14:45:19;30.65;;;15.40;;
52708;SDS011;38606;52.986;6.980;2023-11-18T14:47:46;33.42;;;15.77;;
52708;SDS011;38606;52.986;6.980;2023-11-18T14:50:19;29.92;;;15.35;;
52708;SDS011;38606;52.986;6.980;2023-11-18T14:52:52;21.70;;;11.27;;
52708;SDS011;38606;52.986;6.980;2023-11-18T14:55:24;25.30;;;14.32;;